Terminal Aerodrome Forecast
Issued by NWS Charleston, WV

Current Version | Previous Version | Graphics & Text | Print | Product List | Glossary On
Versions: 1 2 3 4 5 6 7 8 9 10 11 12 13 14 15 16 17 18 19 20 21 22
233
FTUS41 KRLX 210904 AAA
TAFEKN
TAF AMD
KEKN 210904Z 2109/2206 VRB04KT 5SM BR OVC020
     FM211000 VRB03KT 3SM BR OVC015
     FM211600 31004KT P6SM BKN015
     FM211900 30005KT P6SM BKN025
     FM212000 30005KT P6SM BKN035=

USA.gov is the U.S. government's official web portal to all federal, state and local government web resources and services.